Carbonado, Washington
Current Conditions -  °F | °C
As of 12:34 AM on Sunday 21 Dec 2014 (Local Time) from KTCM Reporting Station
Overcast Overcast  
Wind Chill: 54°   Ceiling: 2200
Heat Index: 54°   Visibility: 10mi
Dew Point: 54°   Wind: 15mph
Humidity: 100%   Direction: 230°SW
Pressure: 29.63"   Gusts: NA
Location:  47.08°N, 122.05°W
Report Text: KTCM 210834Z AUTO 23013KT 10SM FEW006 OVC022 12/12 A2963 RMK AO2 RAB05E14RAB18E34 PRESRR
Loading
Personal Weather Stations






























Interactive Weather Map New forecast layout! Learn more

10-Day Weather Forecast

Advertisements
Track Severe Weather on mobile